Time;durP1;ratioP1;P1;durP2;ratioP2;P2;SDS_P1;SDS_P2;PMS_P1;PMS_P2;Temp;Humidity;BMP_temperature;BMP_pressure;BME280_temperature;BME280_humidity;BME280_pressure;Samples;Min_cycle;Max_cycle;Signal;HPM_P1;HPM_P2
2023/04/30 00:02:22;;;;;;;11.97;7.87;;;6.20;99.90;;;;;;5053410;28;20048;-81
2023/04/30 00:04:48;;;;;;;15.23;7.40;;;6.20;99.90;;;;;;5054222;28;20040;-80
2023/04/30 00:07:13;;;;;;;13.27;7.87;;;6.20;99.90;;;;;;5054253;28;20036;-80
2023/04/30 00:09:39;;;;;;;12.73;7.17;;;6.20;99.90;;;;;;5022517;28;20037;-81
2023/04/30 00:12:05;;;;;;;10.83;6.77;;;6.20;99.90;;;;;;5039477;28;20126;-81
2023/04/30 00:14:31;;;;;;;12.77;6.73;;;6.20;99.90;;;;;;5005291;28;20387;-81
2023/04/30 00:16:56;;;;;;;10.90;6.57;;;6.20;99.90;;;;;;5053651;28;20071;-81
2023/04/30 00:19:22;;;;;;;11.40;7.47;;;6.20;99.90;;;;;;5037932;28;20555;-81
2023/04/30 00:21:48;;;;;;;10.43;6.70;;;6.20;99.90;;;;;;5055703;28;20127;-81
2023/04/30 00:24:14;;;;;;;12.57;7.10;;;6.20;99.90;;;;;;5043780;28;20044;-80
2023/04/30 00:26:39;;;;;;;10.77;6.27;;;6.20;99.90;;;;;;5037825;28;20483;-81
2023/04/30 00:29:05;;;;;;;11.33;6.57;;;6.30;99.90;;;;;;5037696;28;20541;-81
2023/04/30 00:31:31;;;;;;;13.70;7.00;;;6.20;99.90;;;;;;5021106;28;20043;-81
2023/04/30 00:33:57;;;;;;;12.97;6.50;;;6.30;99.90;;;;;;5041668;28;20037;-81
2023/04/30 00:36:23;;;;;;;9.90;6.43;;;6.30;99.90;;;;;;5054054;28;20050;-81
2023/04/30 00:38:48;;;;;;;11.33;6.70;;;6.20;99.90;;;;;;5053861;28;20036;-81
2023/04/30 00:41:15;;;;;;;11.67;6.83;;;6.30;99.90;;;;;;5017504;28;20459;-81
2023/04/30 00:43:41;;;;;;;11.73;6.90;;;6.30;99.90;;;;;;5049924;28;20478;-81
2023/04/30 00:46:06;;;;;;;10.33;6.47;;;6.20;99.90;;;;;;5004144;28;20040;-81
2023/04/30 00:48:32;;;;;;;9.27;6.47;;;6.20;99.90;;;;;;5053453;28;20044;-81
2023/04/30 00:50:59;;;;;;;11.27;6.53;;;6.00;99.90;;;;;;5035939;28;20039;-81
2023/04/30 00:53:25;;;;;;;9.73;6.60;;;6.00;99.90;;;;;;5036023;28;20119;-81
2023/04/30 00:55:51;;;;;;;11.30;6.70;;;6.00;99.90;;;;;;5036555;28;20181;-81
2023/04/30 00:58:18;;;;;;;11.07;6.10;;;6.00;99.90;;;;;;5035549;28;20040;-81
2023/04/30 01:00:45;;;;;;;10.10;6.77;;;6.00;99.90;;;;;;5020397;28;20037;-81
2023/04/30 01:03:13;;;;;;;10.67;6.40;;;6.00;99.90;;;;;;5036940;28;20043;-81
2023/04/30 01:05:38;;;;;;;10.03;6.77;;;5.90;99.90;;;;;;5050910;28;20044;-81
2023/04/30 01:08:04;;;;;;;10.13;6.50;;;5.80;99.90;;;;;;5053505;28;20055;-81
2023/04/30 01:10:41;;;;;;;7.30;5.70;;;5.80;99.90;;;;;;5053579;28;20446;-81
2023/04/30 01:13:22;;;;;;;8.07;6.20;;;5.70;99.90;;;;;;5053855;28;20036;-81
2023/04/30 01:16:01;;;;;;;11.45;6.82;;;5.60;99.90;;;;;;5047802;28;20052;-81
2023/04/30 01:18:32;;;;;;;10.47;7.00;;;5.60;99.90;;;;;;5036259;28;20059;-81
2023/04/30 01:21:03;;;;;;;9.53;5.90;;;5.50;99.90;;;;;;5052803;28;20131;-81
2023/04/30 01:23:33;;;;;;;10.27;6.37;;;5.50;99.90;;;;;;5036826;28;20059;-81
2023/04/30 01:26:26;;;;;;;10.90;7.03;;;5.40;99.90;;;;;;5053318;28;20040;-81
2023/04/30 01:28:53;;;;;;;10.57;6.53;;;5.40;99.90;;;;;;5052546;28;20033;-81
2023/04/30 01:31:19;;;;;;;11.93;6.43;;;5.30;99.90;;;;;;5031964;28;20044;-81
2023/04/30 01:33:45;;;;;;;8.97;6.33;;;5.40;99.90;;;;;;5020172;28;20446;-81
2023/04/30 01:36:36;;;;;;;8.53;6.30;;;5.40;99.90;;;;;;5053302;28;20384;-81
2023/04/30 01:39:14;;;;;;;13.87;6.57;;;5.40;99.90;;;;;;5051512;28;20062;-81
2023/04/30 01:41:58;;;;;;;11.33;6.63;;;5.40;99.90;;;;;;5054272;28;20411;-81
2023/04/30 01:44:45;;;;;;;15.13;6.63;;;5.40;99.90;;;;;;5053181;28;20040;-81
2023/04/30 01:47:28;;;;;;;9.87;6.07;;;5.40;99.90;;;;;;5036937;28;20424;-81
2023/04/30 01:50:03;;;;;;;15.13;6.27;;;5.30;99.90;;;;;;5053073;28;20112;-81
2023/04/30 01:52:47;;;;;;;10.10;6.10;;;5.40;99.90;;;;;;5050421;28;20044;-81
2023/04/30 01:55:36;;;;;;;12.80;6.07;;;5.40;99.90;;;;;;5052002;28;20054;-81
2023/04/30 01:58:06;;;;;;;9.37;5.80;;;5.30;99.90;;;;;;5050705;28;20400;-81
2023/04/30 02:00:32;;;;;;;10.57;6.10;;;5.30;99.90;;;;;;5052945;28;20055;-81
2023/04/30 02:02:58;;;;;;;10.20;6.27;;;5.30;99.90;;;;;;5011606;28;20040;-81
2023/04/30 02:05:25;;;;;;;9.23;5.50;;;5.20;99.90;;;;;;5052615;28;20036;-81
2023/04/30 02:07:51;;;;;;;9.63;5.70;;;5.20;99.90;;;;;;5036053;28;20038;-81
2023/04/30 02:10:19;;;;;;;11.70;6.30;;;5.20;99.90;;;;;;5036316;28;20040;-81
2023/04/30 02:12:45;;;;;;;15.37;6.60;;;5.20;99.90;;;;;;5052832;28;20089;-81
2023/04/30 02:15:11;;;;;;;10.50;6.03;;;5.10;99.90;;;;;;5053232;28;20131;-81
2023/04/30 02:17:37;;;;;;;12.17;7.03;;;5.10;99.90;;;;;;5035826;28;20500;-81
2023/04/30 02:20:03;;;;;;;9.77;6.10;;;5.00;99.90;;;;;;5036236;28;20052;-81
2023/04/30 02:22:29;;;;;;;9.00;5.77;;;4.90;99.90;;;;;;5036445;28;20040;-81
2023/04/30 02:24:56;;;;;;;8.47;6.00;;;4.90;99.90;;;;;;5021632;28;20032;-81
2023/04/30 02:27:24;;;;;;;10.43;6.57;;;4.90;99.90;;;;;;5039915;28;20099;-81
2023/04/30 02:29:50;;;;;;;9.67;6.30;;;4.90;99.90;;;;;;5056886;28;20395;-81
2023/04/30 02:32:16;;;;;;;9.07;5.80;;;4.90;99.90;;;;;;5057121;28;20139;-81
2023/04/30 02:34:42;;;;;;;12.43;6.60;;;4.90;99.90;;;;;;5056703;28;20194;-81
2023/04/30 02:37:08;;;;;;;8.93;6.73;;;4.90;99.90;;;;;;5040130;28;20424;-81
2023/04/30 02:39:34;;;;;;;10.53;6.77;;;4.90;99.90;;;;;;5038712;28;20093;-81
2023/04/30 02:41:59;;;;;;;11.20;7.03;;;4.90;99.90;;;;;;5019097;28;20055;-81
2023/04/30 02:44:25;;;;;;;13.40;7.13;;;4.90;99.90;;;;;;5039166;28;20044;-81
2023/04/30 02:46:51;;;;;;;12.30;6.97;;;4.90;99.90;;;;;;5056137;28;20064;-81
2023/04/30 02:49:17;;;;;;;9.63;6.40;;;4.80;99.90;;;;;;5003405;28;20041;-80
2023/04/30 02:51:42;;;;;;;11.83;7.07;;;4.80;99.90;;;;;;5032766;28;20041;-81
2023/04/30 02:54:08;;;;;;;9.73;6.70;;;4.80;99.90;;;;;;5039915;28;20040;-81
2023/04/30 02:56:34;;;;;;;8.70;6.23;;;4.80;99.90;;;;;;5023214;28;20040;-81
2023/04/30 02:59:00;;;;;;;9.83;6.97;;;4.80;99.90;;;;;;5056460;28;20041;-81
2023/04/30 03:01:26;;;;;;;10.37;6.40;;;4.80;99.90;;;;;;5056213;28;20484;-81
2023/04/30 03:03:52;;;;;;;11.87;7.37;;;4.80;99.90;;;;;;5039387;28;20123;-80
2023/04/30 03:06:18;;;;;;;9.00;6.50;;;4.70;99.90;;;;;;5055756;28;20039;-80
2023/04/30 03:08:43;;;;;;;12.60;6.70;;;4.60;99.90;;;;;;5039327;28;20443;-81
2023/04/30 03:11:09;;;;;;;10.30;6.77;;;4.60;99.90;;;;;;5022693;28;20098;-81
2023/04/30 03:13:35;;;;;;;8.27;6.73;;;4.60;99.90;;;;;;5038973;28;20051;-81
2023/04/30 03:16:03;;;;;;;9.37;6.60;;;4.50;99.90;;;;;;5022771;28;20115;-81
2023/04/30 03:18:29;;;;;;;15.40;7.13;;;4.40;99.90;;;;;;5023003;28;20056;-81
2023/04/30 03:20:56;;;;;;;10.20;7.37;;;4.40;99.90;;;;;;5055636;28;20052;-81
2023/04/30 03:23:22;;;;;;;10.63;7.20;;;4.40;99.90;;;;;;5055768;28;20471;-81
2023/04/30 03:25:48;;;;;;;10.87;6.80;;;4.30;99.90;;;;;;5022677;28;20067;-81
2023/04/30 03:28:14;;;;;;;9.57;6.80;;;4.30;99.90;;;;;;5055773;28;20040;-81
2023/04/30 03:30:40;;;;;;;9.50;6.67;;;4.30;99.90;;;;;;5055386;28;20044;-81
2023/04/30 03:33:06;;;;;;;10.97;7.33;;;4.30;99.90;;;;;;5038587;28;20562;-81
2023/04/30 03:35:33;;;;;;;9.43;6.90;;;4.30;99.90;;;;;;5038075;28;20048;-81
2023/04/30 03:38:00;;;;;;;12.77;7.40;;;4.30;99.90;;;;;;5035655;28;20041;-80
2023/04/30 03:40:25;;;;;;;12.23;7.50;;;4.30;99.90;;;;;;5055015;28;20036;-81
2023/04/30 03:42:51;;;;;;;12.40;6.87;;;4.30;99.90;;;;;;5038462;28;20065;-81
2023/04/30 03:45:17;;;;;;;10.20;7.07;;;4.30;99.90;;;;;;5055273;28;20037;-81
2023/04/30 03:47:43;;;;;;;12.50;7.43;;;4.30;99.90;;;;;;5055275;28;20037;-81
2023/04/30 03:50:09;;;;;;;13.47;8.37;;;4.30;99.90;;;;;;5054975;28;20032;-81
2023/04/30 03:52:35;;;;;;;15.47;7.90;;;4.40;99.90;;;;;;5055431;28;20067;-81
2023/04/30 03:55:02;;;;;;;12.27;8.20;;;4.40;99.90;;;;;;5055236;28;20036;-81
2023/04/30 03:57:28;;;;;;;10.20;7.90;;;4.50;99.90;;;;;;5050811;28;20089;-81
2023/04/30 03:59:54;;;;;;;13.10;8.07;;;4.50;99.90;;;;;;5038081;28;20048;-81
2023/04/30 04:02:20;;;;;;;14.13;8.70;;;4.60;99.90;;;;;;5055111;28;20051;-81
2023/04/30 04:04:46;;;;;;;13.80;8.97;;;4.60;99.90;;;;;;5054955;28;20032;-81
2023/04/30 04:07:12;;;;;;;13.63;8.70;;;4.60;99.90;;;;;;5037950;28;20394;-81
2023/04/30 04:09:37;;;;;;;14.07;9.37;;;4.60;99.90;;;;;;5055097;28;20025;-81
2023/04/30 04:12:04;;;;;;;12.27;8.90;;;4.60;99.90;;;;;;5037597;28;20499;-80
2023/04/30 04:14:29;;;;;;;12.87;8.23;;;4.70;99.90;;;;;;5054001;28;20043;-81
2023/04/30 04:16:56;;;;;;;13.00;8.43;;;4.70;99.90;;;;;;5038101;28;20044;-81
2023/04/30 04:19:23;;;;;;;13.13;8.40;;;4.70;99.90;;;;;;5037410;28;20059;-81
2023/04/30 04:21:48;;;;;;;13.93;8.33;;;4.70;99.90;;;;;;5037626;28;20051;-81
2023/04/30 04:24:14;;;;;;;16.07;9.80;;;4.70;99.90;;;;;;5054487;28;20044;-81
2023/04/30 04:26:40;;;;;;;13.00;8.00;;;4.70;99.90;;;;;;5037969;28;20055;-81
2023/04/30 04:29:09;;;;;;;15.30;8.73;;;4.70;99.90;;;;;;5038226;28;20068;-81
2023/04/30 04:31:34;;;;;;;12.23;8.20;;;4.80;99.90;;;;;;5003261;28;20127;-81
2023/04/30 04:34:03;;;;;;;12.90;8.33;;;4.80;99.90;;;;;;5053461;28;20112;-81
2023/04/30 04:36:29;;;;;;;11.83;8.33;;;4.90;99.90;;;;;;5054707;28;20384;-81
2023/04/30 04:39:01;;;;;;;14.53;9.40;;;4.90;99.90;;;;;;5037880;28;20491;-81
2023/04/30 04:41:28;;;;;;;15.10;9.47;;;5.00;99.90;;;;;;5037688;28;20044;-81
2023/04/30 04:43:55;;;;;;;11.00;8.20;;;4.90;99.90;;;;;;5054562;28;20119;-81
2023/04/30 04:46:22;;;;;;;12.03;9.10;;;5.00;99.90;;;;;;5037795;28;20115;-81
2023/04/30 04:48:48;;;;;;;15.00;9.43;;;5.00;99.90;;;;;;5053821;28;20094;-81
2023/04/30 04:51:14;;;;;;;13.37;9.83;;;5.00;99.90;;;;;;5020865;28;20040;-80
2023/04/30 04:53:39;;;;;;;16.50;10.43;;;5.00;99.90;;;;;;5053681;28;20090;-80
2023/04/30 04:56:06;;;;;;;16.00;9.90;;;5.00;99.90;;;;;;5037732;28;20041;-80
2023/04/30 04:58:32;;;;;;;15.07;10.70;;;5.00;99.90;;;;;;5053694;28;20055;-80
2023/04/30 05:00:58;;;;;;;15.23;9.93;;;5.10;99.90;;;;;;5004404;28;20044;-81
2023/04/30 05:03:26;;;;;;;15.87;10.37;;;5.10;99.90;;;;;;5037235;28;20032;-80
2023/04/30 05:05:51;;;;;;;18.33;10.23;;;5.20;99.90;;;;;;5053787;28;20047;-81
2023/04/30 05:08:17;;;;;;;15.10;9.97;;;5.30;99.90;;;;;;5036670;28;20044;-81
2023/04/30 05:10:43;;;;;;;12.53;9.27;;;5.40;99.90;;;;;;5036981;28;20041;-81
2023/04/30 05:13:09;;;;;;;15.83;10.23;;;5.50;99.90;;;;;;5020642;28;20079;-81
2023/04/30 05:15:35;;;;;;;19.00;9.93;;;5.60;99.90;;;;;;5036798;28;20125;-81
2023/04/30 05:18:00;;;;;;;14.40;9.43;;;5.70;99.90;;;;;;5052267;28;20088;-81
2023/04/30 05:20:26;;;;;;;14.80;9.47;;;5.70;99.90;;;;;;5020510;28;20053;-81
2023/04/30 05:22:52;;;;;;;14.67;9.70;;;5.90;99.90;;;;;;5020000;28;20041;-81
2023/04/30 05:25:17;;;;;;;14.87;8.97;;;5.90;99.90;;;;;;5019781;28;20061;-80
2023/04/30 05:27:43;;;;;;;13.73;8.63;;;5.90;99.90;;;;;;5053333;28;20041;-81
2023/04/30 05:30:10;;;;;;;19.00;9.37;;;6.00;99.90;;;;;;5037064;28;20040;-81
2023/04/30 05:32:35;;;;;;;11.90;8.30;;;6.10;99.90;;;;;;5053500;28;20154;-81
2023/04/30 05:35:01;;;;;;;16.27;8.70;;;6.20;99.90;;;;;;5053503;28;20489;-80
2023/04/30 05:37:27;;;;;;;15.13;8.77;;;6.30;99.90;;;;;;5036968;28;20040;-81
2023/04/30 05:39:52;;;;;;;14.00;8.50;;;6.40;99.90;;;;;;5020578;28;20041;-81
2023/04/30 05:42:19;;;;;;;16.90;9.07;;;6.50;99.90;;;;;;5037066;28;20046;-81
2023/04/30 05:44:45;;;;;;;14.07;8.37;;;6.60;99.90;;;;;;5036910;28;20047;-80
2023/04/30 05:47:11;;;;;;;15.87;8.87;;;6.70;99.90;;;;;;5053522;28;20040;-81
2023/04/30 05:49:37;;;;;;;14.30;7.57;;;6.80;99.90;;;;;;5053091;28;20491;-80
2023/04/30 05:52:03;;;;;;;15.50;8.47;;;6.90;99.90;;;;;;5036166;28;20395;-81
2023/04/30 05:54:29;;;;;;;12.47;8.43;;;6.90;99.90;;;;;;5019985;28;20495;-81
2023/04/30 05:56:55;;;;;;;14.47;8.00;;;7.00;99.90;;;;;;5020408;28;20047;-81
2023/04/30 05:59:21;;;;;;;15.93;7.60;;;7.00;99.90;;;;;;5053826;28;20037;-81
2023/04/30 06:01:47;;;;;;;13.10;7.90;;;7.10;99.90;;;;;;5040868;28;20044;-80
2023/04/30 06:04:12;;;;;;;13.17;7.20;;;7.20;99.90;;;;;;5056915;28;20044;-80
2023/04/30 06:06:38;;;;;;;10.30;6.50;;;7.30;99.90;;;;;;5040779;28;20038;-80
2023/04/30 06:09:04;;;;;;;15.77;7.30;;;7.40;99.90;;;;;;5040476;28;20063;-81
2023/04/30 06:11:30;;;;;;;14.53;7.60;;;7.50;99.90;;;;;;5052525;28;20063;-80
2023/04/30 06:13:56;;;;;;;11.50;6.47;;;7.60;99.90;;;;;;5039902;28;20044;-80
2023/04/30 06:16:22;;;;;;;11.70;6.53;;;7.80;99.90;;;;;;5056808;28;20041;-81
2023/04/30 06:18:48;;;;;;;13.53;6.07;;;7.90;99.90;;;;;;5039132;28;20133;-80
2023/04/30 06:21:14;;;;;;;12.57;5.83;;;7.90;99.90;;;;;;5037947;28;20048;-81
2023/04/30 06:23:39;;;;;;;13.37;6.17;;;7.90;99.90;;;;;;5036024;28;20036;-82
2023/04/30 06:26:05;;;;;;;10.23;6.57;;;7.90;99.90;;;;;;5055119;28;20047;-82
2023/04/30 06:28:31;;;;;;;10.53;6.37;;;7.90;99.90;;;;;;5038958;28;20040;-82
2023/04/30 06:30:57;;;;;;;14.80;7.07;;;7.90;99.90;;;;;;5038465;28;20060;-82
2023/04/30 06:33:22;;;;;;;10.30;6.37;;;8.00;99.90;;;;;;5038814;28;20086;-82
2023/04/30 06:35:51;;;;;;;10.17;6.77;;;8.00;99.90;;;;;;5038366;28;20090;-82
2023/04/30 06:38:17;;;;;;;12.80;7.27;;;8.00;99.90;;;;;;5038783;28;20052;-82
2023/04/30 06:40:43;;;;;;;15.47;7.03;;;8.10;99.90;;;;;;5038739;28;20056;-82
2023/04/30 06:43:09;;;;;;;12.50;6.70;;;8.20;99.90;;;;;;5039500;28;20048;-82
2023/04/30 06:45:35;;;;;;;12.43;6.80;;;8.20;99.90;;;;;;5055214;28;20514;-82
2023/04/30 06:48:00;;;;;;;14.27;7.70;;;8.30;99.90;;;;;;5022071;28;20758;-81
2023/04/30 06:50:26;;;;;;;13.93;7.20;;;8.40;99.90;;;;;;5021275;28;20284;-81
2023/04/30 06:52:52;;;;;;;15.47;7.10;;;8.50;99.90;;;;;;5038572;28;20037;-82
2023/04/30 06:55:18;;;;;;;12.20;6.10;;;8.70;99.90;;;;;;5054538;28;20049;-81
2023/04/30 06:57:43;;;;;;;15.43;6.77;;;8.80;99.90;;;;;;5037711;28;20037;-81
2023/04/30 07:00:10;;;;;;;15.90;6.83;;;9.00;99.90;;;;;;5038173;28;20040;-81
2023/04/30 07:02:35;;;;;;;12.77;6.20;;;9.00;99.90;;;;;;5054901;28;20066;-82
2023/04/30 07:05:01;;;;;;;14.03;6.07;;;9.00;99.90;;;;;;5037783;28;20539;-81
2023/04/30 07:07:27;;;;;;;13.83;5.50;;;9.10;99.90;;;;;;5054721;28;20060;-82
2023/04/30 07:09:53;;;;;;;9.53;5.80;;;9.10;99.90;;;;;;5054644;28;20098;-82
2023/04/30 07:12:21;;;;;;;12.83;5.87;;;9.10;99.90;;;;;;5038205;28;20125;-82
2023/04/30 07:14:46;;;;;;;11.93;6.37;;;9.20;99.90;;;;;;5052536;28;20495;-80
2023/04/30 07:17:12;;;;;;;9.60;5.57;;;9.40;99.90;;;;;;5050976;28;20040;-81
2023/04/30 07:19:38;;;;;;;12.23;4.17;;;9.50;99.90;;;;;;4983502;28;1118775;-82
2023/04/30 07:22:04;;;;;;;14.23;5.17;;;9.60;99.90;;;;;;5038649;28;20036;-82
2023/04/30 07:24:30;;;;;;;12.53;5.07;;;9.80;99.90;;;;;;5039242;28;20541;-82
2023/04/30 07:26:55;;;;;;;8.67;4.93;;;9.90;99.90;;;;;;5038792;28;20451;-82
2023/04/30 07:29:21;;;;;;;10.97;5.40;;;10.00;99.90;;;;;;5014977;28;20043;-82
2023/04/30 07:31:47;;;;;;;17.23;5.27;;;10.10;99.90;;;;;;5037693;28;20391;-82
2023/04/30 07:34:12;;;;;;;11.33;5.30;;;10.20;99.90;;;;;;5021897;28;20487;-81
2023/04/30 07:36:38;;;;;;;10.50;5.17;;;10.20;99.90;;;;;;5021783;28;20044;-81
2023/04/30 07:39:07;;;;;;;14.07;4.90;;;10.10;99.90;;;;;;5019486;28;20091;-82
2023/04/30 07:41:32;;;;;;;13.87;5.67;;;10.10;99.90;;;;;;5022469;28;20070;-83
2023/04/30 07:43:58;;;;;;;11.77;5.07;;;10.30;99.90;;;;;;5005282;28;20101;-81
2023/04/30 07:46:24;;;;;;;8.87;4.33;;;10.40;99.90;;;;;;5042100;28;20052;-81
2023/04/30 07:48:50;;;;;;;9.70;4.13;;;10.50;99.90;;;;;;5038736;28;20097;-84
2023/04/30 07:51:16;;;;;;;10.13;4.30;;;10.60;99.90;;;;;;5021398;28;20453;-82
2023/04/30 07:53:42;;;;;;;14.70;4.43;;;10.60;99.90;;;;;;5036469;28;20044;-82
2023/04/30 07:56:08;;;;;;;10.47;4.50;;;10.60;99.90;;;;;;5022696;28;20041;-81
2023/04/30 07:58:33;;;;;;;11.10;4.37;;;10.60;99.90;;;;;;5038909;28;20051;-82
2023/04/30 08:00:59;;;;;;;11.10;4.73;;;10.50;99.90;;;;;;5038216;28;20043;-82
2023/04/30 08:03:25;;;;;;;8.40;3.97;;;10.50;99.90;;;;;;5021413;28;20542;-83
2023/04/30 08:05:51;;;;;;;13.37;4.10;;;10.40;99.90;;;;;;5038628;28;20086;-82
2023/04/30 08:08:17;;;;;;;8.47;4.27;;;10.50;99.90;;;;;;5038415;28;20115;-82
2023/04/30 08:10:43;;;;;;;8.73;4.40;;;10.40;99.90;;;;;;5054422;28;20132;-83
2023/04/30 08:13:09;;;;;;;9.00;3.97;;;10.50;99.90;;;;;;5036092;28;20033;-82
2023/04/30 08:15:36;;;;;;;8.80;3.57;;;10.50;99.90;;;;;;5021057;28;20036;-82
2023/04/30 08:18:02;;;;;;;16.13;4.33;;;10.60;99.90;;;;;;5054208;28;20056;-83
2023/04/30 08:20:28;;;;;;;11.40;4.03;;;10.70;99.90;;;;;;5022009;28;20499;-83
2023/04/30 08:22:54;;;;;;;7.77;4.20;;;10.80;99.90;;;;;;5021359;28;20036;-83
2023/04/30 08:25:19;;;;;;;10.33;4.40;;;10.90;99.90;;;;;;5022302;28;20036;-82
2023/04/30 08:27:45;;;;;;;10.87;4.70;;;11.00;99.90;;;;;;5021883;28;20472;-82
2023/04/30 08:30:11;;;;;;;12.13;4.10;;;11.10;99.90;;;;;;5054700;28;20043;-84
2023/04/30 08:32:37;;;;;;;9.73;4.60;;;11.20;99.90;;;;;;5037704;28;20399;-82
2023/04/30 08:35:06;;;;;;;8.83;4.53;;;11.30;99.90;;;;;;5021685;28;20127;-83
2023/04/30 08:37:32;;;;;;;7.67;4.60;;;11.30;99.90;;;;;;5037587;28;20036;-83
2023/04/30 08:39:58;;;;;;;9.67;4.67;;;11.40;99.90;;;;;;5037249;28;20648;-83
2023/04/30 08:42:28;;;;;;;11.60;4.23;;;11.50;99.90;;;;;;5021397;28;20040;-82
2023/04/30 08:44:53;;;;;;;10.23;4.50;;;11.60;99.90;;;;;;5054100;28;20040;-83
2023/04/30 08:47:20;;;;;;;7.80;3.93;;;11.60;99.90;;;;;;5054448;28;20043;-82
2023/04/30 08:49:46;;;;;;;10.40;4.03;;;11.70;99.90;;;;;;5036938;28;20112;-82
2023/04/30 08:52:12;;;;;;;6.87;4.50;;;11.70;99.90;;;;;;5053497;28;20072;-83
2023/04/30 08:54:38;;;;;;;14.50;4.40;;;11.70;99.90;;;;;;5036809;28;20043;-82
2023/04/30 08:57:05;;;;;;;9.73;4.67;;;11.80;99.90;;;;;;5020678;28;20036;-82
2023/04/30 08:59:31;;;;;;;10.90;4.47;;;11.80;99.90;;;;;;5037559;28;20123;-82
2023/04/30 09:01:58;;;;;;;7.67;3.77;;;11.80;99.90;;;;;;5053761;28;20507;-82
2023/04/30 09:04:24;;;;;;;9.50;4.33;;;11.80;99.90;;;;;;5051007;28;20123;-84
2023/04/30 09:06:57;;;;;;;8.70;4.23;;;11.90;99.90;;;;;;5021176;28;20175;-83
2023/04/30 09:09:28;;;;;;;9.13;4.45;;;11.90;99.90;;;;;;5054294;28;20049;-82
2023/04/30 09:12:19;;;;;;;7.10;4.10;;;12.00;99.90;;;;;;5037685;28;20041;-82
2023/04/30 09:15:04;;;;;;;8.93;4.33;;;12.00;99.90;;;;;;5037443;28;20036;-83
2023/04/30 09:17:31;;;;;;;9.33;4.90;;;12.00;99.90;;;;;;5037135;28;20044;-82
2023/04/30 09:20:10;;;;;;;12.93;4.93;;;11.90;99.90;;;;;;5037456;28;20044;-83
2023/04/30 09:22:37;;;;;;;11.53;4.90;;;11.90;99.90;;;;;;5042010;28;20094;-82
2023/04/30 09:25:03;;;;;;;11.53;4.37;;;11.90;99.90;;;;;;5017188;28;20051;-83
2023/04/30 09:27:29;;;;;;;9.63;4.32;;;12.10;99.90;;;;;;5022671;28;20094;-82
2023/04/30 09:29:55;;;;;;;10.30;4.35;;;12.30;99.90;;;;;;5017231;28;20033;-82
2023/04/30 09:32:21;;;;;;;8.82;4.00;;;12.60;99.90;;;;;;5028569;28;20115;-81
2023/04/30 09:34:47;;;;;;;8.38;4.40;;;12.80;99.90;;;;;;5051475;28;20048;-81
2023/04/30 09:37:13;;;;;;;7.93;4.63;;;13.00;99.90;;;;;;5019823;28;20055;-82
2023/04/30 09:39:54;;;;;;;7.82;4.10;;;13.10;99.90;;;;;;5052468;28;20076;-81
2023/04/30 09:42:20;;;;;;;9.82;4.25;;;13.00;99.90;;;;;;5041490;28;20520;-82
2023/04/30 09:44:46;;;;;;;8.48;4.30;;;13.10;99.90;;;;;;5053379;28;20044;-82
2023/04/30 09:47:18;;;;;;;7.53;4.15;;;13.20;99.90;;;;;;5019982;28;20070;-82
2023/04/30 09:49:50;;;;;;;9.98;3.63;;;13.40;99.90;;;;;;5053768;28;20579;-82
2023/04/30 09:52:16;;;;;;;5.78;3.40;;;13.50;99.90;;;;;;5052510;28;20036;-81
2023/04/30 09:54:44;;;;;;;6.88;3.55;;;13.70;99.90;;;;;;5052843;28;20560;-82
2023/04/30 09:57:11;;;;;;;8.23;4.07;;;13.90;99.90;;;;;;5035813;28;20106;-82
2023/04/30 09:59:38;;;;;;;6.88;4.20;;;14.10;99.90;;;;;;5036208;28;20040;-81
2023/04/30 10:02:08;;;;;;;11.73;4.05;;;14.10;99.90;;;;;;5033796;28;20045;-81
2023/04/30 10:04:36;;;;;;;8.63;4.10;;;13.80;99.90;;;;;;5036503;28;20051;-82
2023/04/30 10:07:11;;;;;;;9.38;4.18;;;13.90;99.90;;;;;;5053727;28;20093;-82
2023/04/30 10:09:58;;;;;;;8.32;3.72;;;14.00;99.90;;;;;;5036270;28;20391;-83
2023/04/30 10:12:32;;;;;;;10.20;4.00;;;14.10;99.90;;;;;;5053439;28;20055;-83
2023/04/30 10:15:08;;;;;;;8.10;4.18;;;14.20;99.90;;;;;;5036618;28;20561;-82
2023/04/30 10:17:39;;;;;;;6.55;3.53;;;14.30;99.90;;;;;;5052635;28;20460;-82
2023/04/30 10:20:08;;;;;;;8.17;4.00;;;14.50;99.90;;;;;;5036190;28;20056;-82
2023/04/30 10:22:34;;;;;;;7.70;4.25;;;14.50;99.90;;;;;;5036077;28;20123;-81
2023/04/30 10:25:01;;;;;;;6.50;3.85;;;14.50;99.90;;;;;;5052256;28;20048;-81
2023/04/30 10:27:29;;;;;;;6.20;3.17;;;14.70;99.90;;;;;;5036640;28;20043;-83
2023/04/30 10:29:54;;;;;;;6.07;3.60;;;14.90;99.90;;;;;;5020377;28;20032;-83
2023/04/30 10:32:22;;;;;;;6.35;3.50;;;15.00;99.90;;;;;;5053277;28;20047;-83
2023/04/30 10:35:05;;;;;;;7.00;3.35;;;14.90;99.90;;;;;;5036073;28;20043;-81
2023/04/30 10:37:42;;;;;;;7.82;3.38;;;15.10;99.90;;;;;;5053072;28;20658;-83
2023/04/30 10:40:08;;;;;;;10.88;3.22;;;15.30;99.90;;;;;;5035941;28;20418;-81
2023/04/30 10:42:35;;;;;;;8.20;3.40;;;15.40;99.90;;;;;;5035881;28;20044;-82
2023/04/30 10:45:04;;;;;;;6.65;3.20;;;15.50;99.90;;;;;;5051535;28;20042;-81
2023/04/30 10:47:30;;;;;;;4.55;3.15;;;15.40;99.90;;;;;;5045166;28;20043;-82
2023/04/30 10:50:08;;;;;;;7.13;3.33;;;15.30;99.90;;;;;;5040615;28;20379;-84
2023/04/30 10:52:36;;;;;;;8.65;3.55;;;15.40;99.90;;;;;;5056039;28;20043;-83
2023/04/30 10:55:08;;;;;;;8.13;3.50;;;15.50;99.90;;;;;;5056171;28;20442;-83
2023/04/30 10:57:47;;;;;;;8.45;3.72;;;15.70;99.90;;;;;;5039372;28;20124;-84
2023/04/30 11:00:15;;;;;;;6.13;3.72;;;15.80;99.90;;;;;;5063295;28;20044;-83
2023/04/30 11:02:42;;;;;;;5.88;3.53;;;16.00;99.90;;;;;;5056302;28;20048;-82
2023/04/30 11:05:10;;;;;;;5.80;3.78;;;16.10;99.90;;;;;;5038818;28;20036;-82
2023/04/30 11:07:36;;;;;;;7.43;3.80;;;16.20;99.90;;;;;;5022490;28;20114;-82
2023/04/30 11:10:07;;;;;;;6.80;3.97;;;16.30;99.90;;;;;;5056594;28;20404;-84
2023/04/30 11:12:33;;;;;;;7.40;3.83;;;16.30;99.90;;;;;;5039933;28;20068;-84
2023/04/30 11:15:12;;;;;;;6.78;3.90;;;16.50;99.90;;;;;;5022376;28;20494;-82
2023/04/30 11:17:38;;;;;;;8.98;4.43;;;16.50;99.90;;;;;;5038046;28;20094;-81
2023/04/30 11:20:05;;;;;;;7.30;3.70;;;16.40;99.90;;;;;;5035902;28;20049;-82
2023/04/30 11:22:34;;;;;;;7.35;3.55;;;16.30;99.90;;;;;;5019143;28;20044;-82
2023/04/30 11:25:08;;;;;;;7.40;3.97;;;16.10;99.90;;;;;;5035565;28;20041;-82
2023/04/30 11:27:36;;;;;;;6.32;4.05;;;15.90;99.90;;;;;;5019251;28;20036;-82
2023/04/30 11:30:08;;;;;;;6.88;3.95;;;16.10;99.90;;;;;;5019374;28;20480;-82
2023/04/30 11:32:35;;;;;;;9.23;4.45;;;16.10;99.90;;;;;;5035755;28;20163;-82
2023/04/30 11:35:03;;;;;;;5.35;3.50;;;16.30;99.90;;;;;;5002198;28;20044;-81
2023/04/30 11:37:29;;;;;;;5.63;3.72;;;16.30;99.90;;;;;;5035467;28;20592;-82
2023/04/30 11:39:59;;;;;;;8.52;3.90;;;16.40;99.90;;;;;;5019328;28;20037;-82
2023/04/30 11:42:25;;;;;;;5.88;3.92;;;16.40;99.90;;;;;;5035696;28;20048;-82
2023/04/30 11:44:50;;;;;;;7.63;4.10;;;16.50;99.90;;;;;;5035359;28;20076;-82
2023/04/30 11:47:16;;;;;;;5.90;3.95;;;16.40;99.90;;;;;;5018952;28;20064;-84
2023/04/30 11:49:42;;;;;;;6.47;4.43;;;16.20;99.90;;;;;;5051427;28;20532;-83
2023/04/30 11:52:08;;;;;;;4.93;3.95;;;16.10;99.90;;;;;;5034539;28;20083;-82
2023/04/30 11:54:38;;;;;;;5.78;3.75;;;16.10;99.90;;;;;;5018194;28;20484;-82
2023/04/30 11:57:04;;;;;;;5.45;3.88;;;16.20;99.90;;;;;;5033769;28;20037;-84
2023/04/30 11:59:31;;;;;;;5.15;3.10;;;16.30;99.90;;;;;;5002478;28;20532;-83
2023/04/30 12:01:57;;;;;;;4.88;3.90;;;16.40;99.90;;;;;;5034739;28;20037;-83
2023/04/30 12:04:23;;;;;;;4.60;3.33;;;16.50;99.90;;;;;;5051817;28;20064;-83
2023/04/30 12:06:49;;;;;;;6.50;3.55;;;16.50;99.90;;;;;;5018588;28;20522;-84
2023/04/30 12:09:15;;;;;;;4.78;3.15;;;16.50;99.90;;;;;;5035062;28;20129;-83
2023/04/30 12:11:40;;;;;;;7.40;3.53;;;16.60;99.90;;;;;;4982223;28;20120;-81
2023/04/30 12:14:10;;;;;;;5.05;3.33;;;16.60;99.90;;;;;;5016908;28;20037;-82
2023/04/30 12:16:44;;;;;;;4.78;3.33;;;16.50;99.90;;;;;;5034937;28;20123;-82
2023/04/30 12:19:11;;;;;;;5.53;3.13;;;16.50;99.90;;;;;;5046509;28;20071;-84
2023/04/30 12:21:38;;;;;;;4.60;3.42;;;16.60;99.90;;;;;;5054756;28;20059;-82
2023/04/30 12:24:05;;;;;;;5.25;3.72;;;16.70;99.90;;;;;;5054883;28;20049;-83
2023/04/30 12:26:38;;;;;;;4.00;3.15;;;16.50;99.90;;;;;;5054447;28;20075;-83
2023/04/30 12:29:14;;;;;;;6.97;3.50;;;16.50;99.90;;;;;;5054635;28;20495;-83
2023/04/30 12:31:40;;;;;;;4.97;3.47;;;16.70;99.90;;;;;;5054872;28;20051;-83
2023/04/30 12:34:08;;;;;;;4.20;3.30;;;16.90;99.90;;;;;;5054503;28;20024;-83
2023/04/30 12:36:35;;;;;;;4.65;3.65;;;17.20;99.90;;;;;;5037703;28;20049;-83
2023/04/30 12:39:08;;;;;;;4.57;3.50;;;17.30;99.90;;;;;;5022392;28;20032;-82
2023/04/30 12:41:45;;;;;;;4.43;2.80;;;17.10;98.90;;;;;;5037765;28;20044;-82
2023/04/30 12:44:14;;;;;;;5.95;3.30;;;17.10;99.90;;;;;;5044874;28;20044;-82
2023/04/30 12:46:40;;;;;;;7.25;3.35;;;17.10;99.80;;;;;;5053652;28;20043;-82
2023/04/30 12:49:06;;;;;;;6.47;3.40;;;17.20;99.90;;;;;;5015078;28;20077;-83